SNOW

Not for real navigation. The accuracy of this data is not assured See disclaimer for more information



ICAO NAME COUNTRY WIND Kt GUST Kt VIS m TEMP/DEW C BARO METAR
PABA Barter Island, Barter Island L AK United States 8 0 1600 -3/-5 29.77 PABA 252352Z 31008KT 1 0.5SM -SN BR BKN013 OVC027 M03/M05 A2977 RMK AO2 SLP066 P0000 60000 T10281050
CYPH Inukjuak Airport Supplementary Canada 20 31 1600 -5/-6 29.63 CYPH 252348Z AUTO 18020G31KT 1 0.25SM -SN BKN011 OVC017 M05/M06 A2963 RMK SLP039
PAWM 18 23 1600 1/0 29.46 PAWM 252356Z AUTO 17018G23KT 1 0.5SM -SN BR OVC004 01/00 A2946 RMK AO2 RAB15E36SNE15B36 SLP981 P0000
BGJN Jacobshavn Lufthavn Greenland 4 0 2800 -6/-7 29.88 BGJN 252350Z 16004KT 2800 -SN BKN010 OVC029 M06/M07 Q1012
CYTE Cape Dorset, N. W. T. Canada 6 0 3200 -11/-12 29.54 CYTE 252353Z AUTO 29006KT 2 0.5SM -SN OVC030 M11/M12 A2954 RMK SLP010

Show more